createdAt,value
2019-01-06T00:05:02.322Z,20.60
2019-01-06T00:10:40.247Z,19.83
2019-01-06T00:21:49.922Z,17.20
2019-01-06T00:27:27.517Z,14.87
2019-01-06T00:33:05.140Z,15.33
2019-01-06T00:38:42.797Z,14.43
2019-01-06T00:44:20.523Z,14.03
2019-01-06T00:49:58.102Z,12.00
2019-01-06T01:01:07.771Z,12.90
2019-01-06T01:17:49.689Z,14.60
2019-01-06T01:23:27.334Z,14.23
2019-01-06T01:29:04.996Z,14.10
2019-01-06T01:34:42.585Z,14.70
2019-01-06T01:45:52.691Z,14.37
2019-01-06T01:51:30.267Z,12.23
2019-01-06T01:57:07.860Z,12.63
2019-01-06T02:02:45.451Z,13.10
2019-01-06T02:08:23.098Z,15.37
2019-01-06T02:14:00.759Z,15.13
2019-01-06T02:19:38.352Z,15.70
2019-01-06T02:25:15.931Z,17.37
2019-01-06T02:30:53.512Z,16.60
2019-01-06T02:36:31.161Z,15.40
2019-01-06T02:42:08.759Z,15.98
2019-01-06T02:47:46.331Z,16.13
2019-01-06T02:53:23.985Z,15.03
2019-01-06T02:59:01.569Z,14.67
2019-01-06T03:04:39.266Z,15.80
2019-01-06T03:15:45.952Z,14.33
2019-01-06T03:21:23.526Z,13.80
2019-01-06T03:27:01.113Z,13.60
2019-01-06T03:38:10.893Z,15.10
2019-01-06T03:44:07.824Z,14.07
2019-01-06T03:55:18.112Z,12.27
2019-01-06T04:00:55.690Z,15.53
2019-01-06T04:12:02.603Z,13.77
2019-01-06T04:23:12.485Z,13.60
2019-01-06T04:28:50.207Z,13.37
2019-01-06T04:34:27.803Z,13.27
2019-01-06T04:40:05.743Z,13.63
2019-01-06T04:56:44.579Z,12.73
2019-01-06T05:07:51.413Z,12.03
2019-01-06T05:13:29.263Z,12.73
2019-01-06T05:19:06.859Z,12.28
2019-01-06T05:24:44.657Z,13.20
2019-01-06T05:30:22.378Z,10.80
2019-01-06T05:36:00.107Z,11.50
2019-01-06T05:41:37.704Z,10.30
2019-01-06T05:47:15.382Z,11.03
2019-01-06T05:52:52.969Z,9.53
2019-01-06T05:58:30.554Z,10.17
2019-01-06T06:04:08.144Z,10.20
2019-01-06T06:09:45.865Z,10.57
2019-01-06T06:21:14.670Z,9.67
2019-01-06T06:32:24.656Z,8.07
2019-01-06T06:43:31.318Z,6.83
2019-01-06T06:49:08.901Z,7.43
2019-01-06T06:55:05.828Z,8.50
2019-01-06T07:01:04.268Z,8.60
2019-01-06T07:12:11.347Z,10.90
2019-01-06T07:18:08.347Z,12.27
2019-01-06T07:29:37.512Z,13.23
2019-01-06T07:35:15.104Z,11.73
2019-01-06T07:46:46.552Z,12.37
2019-01-06T08:03:25.526Z,17.40
2019-01-06T08:09:03.114Z,17.83
2019-01-06T08:14:41.038Z,19.83
2019-01-06T08:20:18.616Z,18.50
2019-01-06T08:25:56.199Z,19.53
2019-01-06T08:31:33.784Z,20.83
2019-01-06T08:37:11.366Z,21.00
2019-01-06T08:42:48.954Z,23.35
2019-01-06T08:48:26.535Z,23.40
2019-01-06T08:54:04.122Z,20.53
2019-01-06T08:59:41.708Z,21.17
2019-01-06T09:05:19.321Z,20.60
2019-01-06T09:10:56.975Z,20.23
2019-01-06T09:16:34.633Z,19.00
2019-01-06T09:27:44.436Z,17.00
2019-01-06T09:38:51.348Z,18.30
2019-01-06T09:49:58.404Z,16.53
2019-01-06T09:55:36.295Z,17.47
2019-01-06T10:01:13.911Z,17.80
2019-01-06T10:06:51.499Z,15.57
2019-01-06T10:12:29.237Z,14.85
2019-01-06T10:18:06.960Z,13.13
2019-01-06T10:29:13.782Z,14.23
2019-01-06T10:34:51.506Z,14.53
2019-01-06T10:40:29.157Z,15.70
2019-01-06T10:57:08.129Z,16.00
2019-01-06T11:02:45.724Z,15.65
2019-01-06T11:08:23.419Z,16.07
2019-01-06T11:14:01.011Z,15.57
2019-01-06T11:19:38.676Z,16.07
2019-01-06T11:25:16.395Z,15.47
2019-01-06T11:30:54.138Z,12.80
2019-01-06T11:36:31.730Z,12.18
2019-01-06T11:42:09.395Z,11.13
2019-01-06T11:53:16.056Z,11.03
2019-01-06T12:04:25.875Z,10.37
2019-01-06T12:10:03.502Z,10.23
2019-01-06T12:15:41.145Z,9.90
2019-01-06T12:21:18.740Z,10.68
2019-01-06T12:26:56.544Z,8.60
2019-01-06T12:32:34.119Z,8.50
2019-01-06T12:38:11.778Z,7.87
2019-01-06T12:49:18.565Z,9.13
2019-01-06T12:54:56.179Z,9.47
2019-01-06T13:06:24.896Z,10.23
2019-01-06T13:12:02.833Z,10.93
2019-01-06T13:17:43.498Z,9.90
2019-01-06T13:23:21.148Z,10.17
2019-01-06T13:28:58.966Z,9.15
2019-01-06T13:34:55.926Z,9.37
2019-01-06T13:41:02.361Z,8.30
2019-01-06T13:52:04.530Z,9.37
2019-01-06T13:57:42.203Z,10.53
2019-01-06T14:03:20.305Z,11.80
2019-01-06T14:14:44.836Z,11.27
2019-01-06T14:20:22.824Z,10.50
2019-01-06T14:26:00.730Z,11.57
2019-01-06T14:37:16.333Z,9.67
2019-01-06T14:42:54.230Z,8.80
2019-01-06T14:48:31.883Z,7.87
2019-01-06T14:54:09.944Z,7.37
2019-01-06T14:59:47.594Z,7.57
2019-01-06T15:05:28.657Z,6.70
2019-01-06T15:11:06.317Z,6.47
2019-01-06T15:16:44.032Z,6.47
2019-01-06T15:22:21.681Z,6.77
2019-01-06T15:27:59.624Z,5.37
2019-01-06T15:44:35.521Z,6.57
2019-01-06T15:50:13.164Z,6.43
2019-01-06T15:55:50.815Z,6.03
2019-01-06T16:01:47.939Z,6.57
2019-01-06T16:07:25.527Z,7.70
2019-01-06T16:13:22.862Z,7.77
2019-01-06T16:19:00.500Z,9.23
2019-01-06T16:24:38.144Z,7.77
2019-01-06T16:41:16.980Z,9.47
2019-01-06T16:46:54.566Z,10.40
2019-01-06T16:52:32.147Z,11.17
2019-01-06T16:58:09.731Z,11.80
2019-01-06T17:03:47.316Z,10.50
2019-01-06T17:09:45.701Z,10.07
2019-01-06T17:21:14.606Z,10.83
2019-01-06T17:26:52.185Z,10.03
2019-01-06T17:32:29.771Z,10.23
2019-01-06T17:38:07.360Z,14.67
2019-01-06T17:44:04.357Z,13.25
2019-01-06T17:49:42.291Z,13.05
2019-01-06T17:55:20.011Z,12.57
2019-01-06T18:00:57.752Z,13.67
2019-01-06T18:06:35.420Z,15.47
2019-01-06T18:12:13.311Z,16.23
2019-01-06T18:29:11.879Z,18.37
2019-01-06T18:34:49.773Z,17.93
2019-01-06T18:45:56.660Z,18.30
2019-01-06T18:51:34.380Z,18.20
2019-01-06T18:57:11.992Z,18.70
2019-01-06T19:02:49.648Z,18.73
2019-01-06T19:08:27.396Z,19.27
2019-01-06T19:14:05.005Z,19.10
2019-01-06T19:20:01.921Z,19.97
2019-01-06T19:25:39.570Z,20.60
2019-01-06T19:31:17.714Z,18.33
2019-01-06T19:37:14.644Z,18.37
2019-01-06T19:42:52.301Z,17.33
2019-01-06T19:48:29.976Z,18.87
2019-01-06T19:54:07.644Z,19.47
2019-01-06T19:59:45.264Z,19.27
2019-01-06T20:11:14.034Z,22.13
2019-01-06T20:16:51.766Z,19.70
2019-01-06T20:22:29.396Z,19.92
2019-01-06T20:39:05.298Z,19.07
2019-01-06T20:56:06.527Z,21.87
2019-01-06T21:01:44.262Z,21.40
2019-01-06T21:07:21.990Z,22.10
2019-01-06T21:23:58.066Z,20.65
2019-01-06T21:29:35.715Z,22.27
2019-01-06T21:40:45.812Z,22.57
2019-01-06T21:46:23.488Z,21.80
2019-01-06T21:57:30.239Z,21.93
2019-01-06T22:03:08.103Z,21.40
2019-01-06T22:08:45.853Z,18.83
2019-01-06T22:14:23.576Z,19.60
2019-01-06T22:20:20.574Z,18.92
2019-01-06T22:25:58.222Z,18.33
2019-01-06T22:31:35.808Z,18.48
2019-01-06T22:37:13.672Z,20.33
2019-01-06T22:42:51.244Z,20.33
2019-01-06T22:48:28.900Z,21.80
2019-01-06T22:54:06.461Z,22.83
2019-01-06T22:59:44.041Z,24.00
2019-01-06T23:10:53.719Z,25.40
2019-01-06T23:22:03.722Z,26.40
2019-01-06T23:27:41.378Z,26.87
2019-01-06T23:33:18.946Z,26.13
2019-01-06T23:39:15.867Z,24.27
2019-01-06T23:44:53.518Z,25.33
2019-01-06T23:50:31.172Z,24.57
2019-01-06T23:56:08.751Z,23.53
